Time;durP1;ratioP1;P1;durP2;ratioP2;P2;SDS_P1;SDS_P2;PMS_P1;PMS_P2;Temp;Humidity;BMP_temperature;BMP_pressure;BME280_temperature;BME280_humidity;BME280_pressure;Samples;Min_cycle;Max_cycle;Signal;HPM_P1;HPM_P2
2022/07/23 01:46:21;;;;;;;10.82;8.10;;;;;;;17.59;100.00;100332.09;1810109;77;23560;-78
2022/07/23 01:48:50;;;;;;;12.37;8.35;;;;;;;17.47;100.00;100341.31;1837763;78;21053;-78
2022/07/23 01:51:29;;;;;;;9.13;7.87;;;;;;;17.33;100.00;100337.97;1834306;78;21006;-78
2022/07/23 01:53:58;;;;;;;8.93;8.03;;;;;;;17.28;100.00;100337.50;1828263;78;21046;-78
2022/07/23 01:56:25;;;;;;;10.13;7.87;;;;;;;17.22;100.00;100340.55;1805027;79;21034;-77
2022/07/23 01:58:52;;;;;;;8.75;7.95;;;;;;;17.32;100.00;100344.61;1804324;79;21474;-78
2022/07/23 02:01:21;;;;;;;10.68;8.50;;;;;;;17.31;100.00;100349.44;1775569;79;21530;-80
2022/07/23 02:03:49;;;;;;;9.50;8.10;;;;;;;17.26;100.00;100345.89;1804396;79;21050;-77
2022/07/23 02:06:16;;;;;;;12.58;8.78;;;;;;;17.25;100.00;100342.91;1804082;79;21133;-78
2022/07/23 02:08:45;;;;;;;13.55;8.73;;;;;;;17.36;100.00;100332.55;1804240;79;21100;-79
2022/07/23 02:11:14;;;;;;;11.88;9.00;;;;;;;17.28;100.00;100341.40;1804437;79;21030;-79
2022/07/23 02:13:41;;;;;;;14.58;8.98;;;;;;;17.36;100.00;100339.53;1804506;79;21142;-78
2022/07/23 02:16:09;;;;;;;10.35;9.25;;;;;;;17.39;100.00;100337.98;1804778;79;21038;-78
2022/07/23 02:18:37;;;;;;;11.57;9.35;;;;;;;17.41;100.00;100349.92;1804493;79;21553;-79
2022/07/23 02:21:04;;;;;;;16.15;10.55;;;;;;;17.37;100.00;100347.20;1804741;79;21015;-79
2022/07/23 02:23:31;;;;;;;11.25;9.25;;;;;;;17.35;100.00;100346.48;1837902;78;20998;-80
2022/07/23 02:25:58;;;;;;;10.45;9.28;;;;;;;17.46;100.00;100342.24;1837827;78;21021;-79
2022/07/23 02:28:26;;;;;;;13.68;9.23;;;;;;;17.33;100.00;100349.67;1837795;78;21117;-78
2022/07/23 02:30:53;;;;;;;11.83;8.70;;;;;;;17.34;100.00;100337.03;1838062;78;21554;-77
2022/07/23 02:33:20;;;;;;;11.70;8.53;;;;;;;17.28;100.00;100341.40;1837700;78;21030;-78
2022/07/23 02:35:49;;;;;;;10.35;8.53;;;;;;;17.51;100.00;100339.66;1837750;78;21117;-77
2022/07/23 02:38:17;;;;;;;9.95;8.40;;;;;;;17.42;100.00;100345.57;1838065;78;20991;-79
2022/07/23 02:40:47;;;;;;;8.90;8.00;;;;;;;17.57;100.00;100337.88;1838174;78;21022;-78
2022/07/23 02:43:15;;;;;;;10.25;8.50;;;;;;;17.51;100.00;100350.55;1808045;78;21077;-79
2022/07/23 02:45:43;;;;;;;10.00;8.23;;;;;;;17.45;100.00;100352.31;1832136;78;21046;-80
2022/07/23 02:48:15;;;;;;;9.13;8.23;;;;;;;17.44;100.00;100363.20;1829010;78;20991;-78
2022/07/23 02:50:43;;;;;;;10.75;7.60;;;;;;;17.64;100.00;100359.09;1797158;78;21048;-78
2022/07/23 02:53:12;;;;;;;10.40;7.87;;;;;;;17.36;100.00;100366.84;1828968;78;21526;-81
2022/07/23 02:55:40;;;;;;;8.98;8.08;;;;;;;18.19;100.00;100378.77;1828936;78;21031;-80
2022/07/23 02:58:07;;;;;;;9.00;8.05;;;;;;;18.15;100.00;100387.30;1829025;78;21030;-80
2022/07/23 03:00:35;;;;;;;9.03;7.90;;;;;;;18.13;100.00;100390.98;1829405;78;21082;-80
2022/07/23 03:03:02;;;;;;;9.28;7.65;;;;;;;17.99;100.00;100390.26;1829031;78;21034;-79
2022/07/23 03:05:30;;;;;;;10.78;8.03;;;;;;;18.17;100.00;100388.00;1829129;78;21023;-80
2022/07/23 03:07:57;;;;;;;10.23;8.13;;;;;;;18.23;100.00;100393.22;1829122;78;20980;-80
2022/07/23 03:10:25;;;;;;;8.60;7.80;;;;;;;18.19;100.00;100395.23;1829315;78;21061;-79
2022/07/23 03:12:52;;;;;;;9.45;8.43;;;;;;;17.86;100.00;100388.70;1828939;78;21015;-79
2022/07/23 03:15:20;;;;;;;9.30;8.10;;;;;;;18.01;100.00;100396.17;1829219;78;21471;-79
2022/07/23 03:17:49;;;;;;;9.10;8.15;;;;;;;18.08;100.00;100390.01;1829238;78;21436;-80
2022/07/23 03:20:16;;;;;;;11.18;9.00;;;;;;;18.07;100.00;100398.79;1829028;78;21089;-81
2022/07/23 03:22:44;;;;;;;9.38;8.48;;;;;;;18.07;100.00;100393.58;1829304;78;21026;-80
2022/07/23 03:25:11;;;;;;;10.40;9.00;;;;;;;18.01;100.00;100396.17;1829022;78;21106;-80
2022/07/23 03:27:38;;;;;;;9.75;8.78;;;;;;;18.08;100.00;100392.61;1829330;78;21490;-80
2022/07/23 03:30:07;;;;;;;10.10;8.85;;;;;;;18.17;100.00;100397.61;1829033;78;21035;-79
2022/07/23 03:32:35;;;;;;;10.00;8.90;;;;;;;18.24;100.00;100392.73;1829317;78;20967;-79
2022/07/23 03:35:04;;;;;;;11.12;8.40;;;;;;;18.28;100.00;100397.58;1828957;78;21047;-81
2022/07/23 03:37:31;;;;;;;9.83;8.83;;;;;;;18.40;100.00;100401.83;1829237;78;21014;-80
2022/07/23 03:39:59;;;;;;;10.80;8.70;;;;;;;18.18;100.00;100405.77;1829176;78;21097;-79
2022/07/23 03:42:27;;;;;;;10.40;8.80;;;;;;;18.39;100.00;100400.67;1796957;78;21014;-79
2022/07/23 03:44:55;;;;;;;11.60;9.23;;;;;;;18.43;100.00;100404.69;1825546;78;21079;-78
2022/07/23 03:47:23;;;;;;;14.05;10.90;;;;;;;18.43;100.00;100407.30;1813159;79;21518;-79
2022/07/23 03:49:51;;;;;;;11.68;10.45;;;;;;;18.39;100.00;100405.88;1813236;78;21031;-78
2022/07/23 03:52:18;;;;;;;14.20;11.10;;;;;;;18.32;100.00;100408.12;1813418;79;20991;-80
2022/07/23 03:54:45;;;;;;;14.10;11.97;;;;;;;18.48;100.00;100407.75;1813186;79;21082;-79
2022/07/23 03:57:13;;;;;;;19.40;12.43;;;;;;;18.60;100.00;100417.69;1813213;79;21086;-79
2022/07/23 03:59:41;;;;;;;13.05;11.03;;;;;;;18.60;100.00;100413.77;1813330;78;21515;-79
2022/07/23 04:02:09;;;;;;;13.88;10.78;;;;;;;18.82;100.00;100410.31;1813176;79;20999;-79
2022/07/23 04:04:36;;;;;;;13.50;11.40;;;;;;;18.90;100.00;100413.62;1813441;79;21062;-78
2022/07/23 04:07:03;;;;;;;14.87;12.30;;;;;;;18.92;100.00;100412.53;1813071;79;21554;-78
2022/07/23 04:09:34;;;;;;;13.83;11.75;;;;;;;19.23;100.00;100415.73;1813156;79;21354;-81
2022/07/23 04:12:04;;;;;;;11.60;10.25;;;;;;;19.33;100.00;100429.69;1813285;79;21039;-81
2022/07/23 04:14:32;;;;;;;13.45;10.20;;;;;;;19.23;100.00;100437.92;1786486;79;21038;-80
2022/07/23 04:16:59;;;;;;;11.18;9.80;;;;;;;19.13;100.00;100428.22;1813437;79;21015;-80
2022/07/23 04:19:30;;;;;;;13.55;11.03;;;;;;;19.07;100.00;100426.59;1813195;79;21062;-80
2022/07/23 04:22:01;;;;;;;13.55;11.83;;;;;;;19.28;100.00;100431.38;1812953;79;21070;-79
2022/07/23 04:24:29;;;;;;;13.25;11.15;;;;;;;19.32;100.00;100421.48;1813070;79;21015;-81
2022/07/23 04:26:56;;;;;;;13.13;11.57;;;;;;;19.35;100.00;100425.16;1813473;79;20995;-80
2022/07/23 04:29:24;;;;;;;13.72;12.35;;;;;;;19.32;100.00;100428.02;1813112;79;21012;-80
2022/07/23 04:31:51;;;;;;;15.32;13.58;;;;;;;19.60;100.00;100436.52;1813146;78;21078;-81
2022/07/23 04:34:19;;;;;;;13.48;12.05;;;;;;;19.78;100.00;100447.25;1813330;79;21106;-80
2022/07/23 04:36:46;;;;;;;15.40;13.80;;;;;;;19.49;100.00;100446.22;1813062;79;21102;-79
2022/07/23 04:39:14;;;;;;;14.28;12.90;;;;;;;19.70;100.00;100450.95;1786305;79;21522;-78
2022/07/23 04:41:42;;;;;;;14.78;12.98;;;;;;;19.94;100.00;100459.03;1813487;79;21110;-80
2022/07/23 04:44:11;;;;;;;16.82;14.73;;;;;;;19.80;100.00;100463.62;1786499;79;21071;-81
2022/07/23 04:46:39;;;;;;;18.23;16.12;;;;;;;19.77;100.00;100459.97;1825789;78;21093;-80
2022/07/23 04:49:08;;;;;;;21.82;14.93;;;;;;;19.72;100.00;100469.96;1829281;78;21042;-81
2022/07/23 04:51:36;;;;;;;16.77;14.45;;;;;;;19.84;100.00;100470.73;1828967;78;21066;-79
2022/07/23 04:54:03;;;;;;;16.50;14.83;;;;;;;19.89;100.00;100465.11;1829090;78;21014;-81
2022/07/23 04:56:31;;;;;;;16.65;14.35;;;;;;;19.95;100.00;100475.04;1829175;78;21015;-80
2022/07/23 04:59:02;;;;;;;20.85;16.17;;;;;;;19.93;100.00;100471.73;1829121;78;21046;-80
2022/07/23 05:01:29;;;;;;;18.37;16.35;;;;;;;20.06;100.00;100469.75;1829691;78;20994;-80
2022/07/23 05:03:56;;;;;;;16.87;15.08;;;;;;;20.03;100.00;100475.22;1828958;78;21536;-80
2022/07/23 05:06:24;;;;;;;18.62;14.43;;;;;;;20.07;100.00;100476.62;1827735;78;21045;-79
2022/07/23 05:08:51;;;;;;;15.75;13.98;;;;;;;20.21;100.00;100479.38;1827874;78;21057;-79
2022/07/23 05:11:19;;;;;;;13.40;12.00;;;;;;;20.13;100.00;100479.20;1827671;78;21050;-78
2022/07/23 05:13:48;;;;;;;12.95;11.65;;;;;;;20.25;100.00;100488.61;1827686;78;20999;-80
2022/07/23 05:16:15;;;;;;;14.40;11.33;;;;;;;20.12;100.00;100495.36;1827851;78;21101;-79
2022/07/23 05:18:44;;;;;;;13.20;11.85;;;;;;;19.96;100.00;100499.74;1827695;78;21026;-80
2022/07/23 05:21:12;;;;;;;13.80;11.05;;;;;;;20.04;100.00;100489.95;1827825;78;21509;-80
2022/07/23 05:23:40;;;;;;;12.30;11.05;;;;;;;20.46;100.00;100491.19;1828059;78;21014;-79
2022/07/23 05:26:08;;;;;;;11.68;9.73;;;;;;;20.58;100.00;100496.70;1827709;78;21592;-78
2022/07/23 05:28:36;;;;;;;10.98;9.88;;;;;;;20.60;100.00;100491.34;1827906;78;21063;-81
2022/07/23 05:31:04;;;;;;;11.53;10.25;;;;;;;20.58;100.00;100497.16;1828012;78;21557;-80
2022/07/23 05:33:32;;;;;;;12.28;10.23;;;;;;;20.69;100.00;100507.53;1797004;78;21074;-77
2022/07/23 05:36:06;;;;;;;11.10;9.93;;;;;;;20.69;100.00;100503.61;1828670;78;21062;-78
2022/07/23 05:38:36;;;;;;;10.18;9.28;;;;;;;20.73;100.00;100497.63;1828853;78;20999;-82
2022/07/23 05:41:05;;;;;;;11.15;9.60;;;;;;;20.71;100.00;100487.78;1829128;78;20982;-81
2022/07/23 05:43:33;;;;;;;12.03;9.58;;;;;;;20.79;100.00;100488.76;1829021;78;21510;-79
2022/07/23 05:46:02;;;;;;;10.48;9.05;;;;;;;20.86;100.00;100488.22;1828597;78;21054;-80
2022/07/23 05:48:30;;;;;;;10.58;9.18;;;;;;;21.10;100.00;100494.39;1828725;78;21038;-80
2022/07/23 05:51:06;;;;;;;16.25;10.32;;;;;;;21.27;100.00;100496.34;1828506;78;20971;-80
2022/07/23 05:53:32;;;;;;;10.23;9.25;;;;;;;21.06;100.00;100496.45;1828660;78;21521;-80
2022/07/23 05:56:02;;;;;;;10.23;9.03;;;;;;;21.17;100.00;100496.83;1827821;78;20994;-80
2022/07/23 05:58:31;;;;;;;11.68;9.68;;;;;;;21.27;100.00;100489.80;1829100;78;21003;-83
2022/07/23 06:00:58;;;;;;;13.80;9.40;;;;;;;21.52;100.00;100496.78;1828636;78;21030;-79
2022/07/23 06:03:25;;;;;;;11.22;8.93;;;;;;;21.56;100.00;100502.09;1828939;78;21027;-79
2022/07/23 06:05:52;;;;;;;9.10;8.23;;;;;;;21.36;100.00;100513.02;1828609;78;21530;-79
2022/07/23 06:08:20;;;;;;;10.90;9.80;;;;;;;21.55;100.00;100510.89;1828988;78;21073;-78
2022/07/23 06:10:49;;;;;;;10.32;9.23;;;;;;;21.60;100.00;100521.30;1828667;78;21022;-79
2022/07/23 06:13:18;;;;;;;10.72;9.48;;;;;;;21.72;100.00;100531.66;1829012;78;21058;-80
2022/07/23 06:15:45;;;;;;;11.28;9.58;;;;;;;21.74;100.00;100516.13;1796548;78;21019;-79
2022/07/23 06:18:14;;;;;;;12.03;9.20;;;;;;;22.01;100.00;100519.31;1828678;78;21007;-78
2022/07/23 06:20:42;;;;;;;11.65;9.15;;;;;;;22.29;100.00;100539.57;1828862;78;20991;-77
2022/07/23 06:23:12;;;;;;;10.60;9.08;;;;;;;22.40;100.00;100540.69;1828759;78;21491;-81
2022/07/23 06:25:40;;;;;;;9.48;8.60;;;;;;;22.50;100.00;100543.28;1829253;78;21057;-84
2022/07/23 06:28:07;;;;;;;10.05;8.73;;;;;;;22.63;100.00;100537.70;1828891;78;21109;-79
2022/07/23 06:30:35;;;;;;;10.30;8.63;;;;;;;22.75;100.00;100540.00;1828768;78;21049;-79
2022/07/23 06:33:04;;;;;;;10.10;9.20;;;;;;;22.81;100.00;100545.16;1829279;78;21002;-81
2022/07/23 06:35:31;;;;;;;9.90;8.93;;;;;;;22.75;100.00;100551.81;1828900;78;21058;-78
2022/07/23 06:38:00;;;;;;;10.88;9.20;;;;;;;23.08;100.00;100551.39;1828869;78;21090;-77
2022/07/23 06:40:27;;;;;;;12.90;9.58;;;;;;;22.68;100.00;100557.78;1829140;78;21034;-79
2022/07/23 06:42:55;;;;;;;10.18;9.18;;;;;;;22.87;100.00;100554.22;1828782;78;21065;-78
2022/07/23 06:45:25;;;;;;;10.63;9.48;;;;;;;23.06;100.00;100555.47;1828949;78;21085;-81
2022/07/23 06:47:53;;;;;;;9.35;8.43;;;;;;;22.97;100.00;100552.36;1832293;78;21027;-78
2022/07/23 06:50:20;;;;;;;10.70;8.83;;;;;;;23.20;100.00;100557.58;1832384;78;21042;-79
2022/07/23 06:52:50;;;;;;;9.48;8.15;;;;;;;23.13;100.00;100565.70;1832539;78;20991;-80
2022/07/23 06:55:17;;;;;;;9.45;8.55;;;;;;;22.94;100.00;100582.86;1832402;78;21514;-79
2022/07/23 06:57:45;;;;;;;10.20;9.20;;;;;;;22.96;100.00;100567.30;1805008;78;21130;-73
2022/07/23 07:00:14;;;;;;;9.95;8.70;;;;;;;23.28;100.00;100570.48;1832378;78;21022;-78
2022/07/23 07:02:42;;;;;;;9.93;8.70;;;;;;;23.57;100.00;100567.13;1832631;78;21002;-79
2022/07/23 07:05:10;;;;;;;10.50;8.55;;;;;;;24.04;100.00;100576.56;1832569;78;21029;-79
2022/07/23 07:07:38;;;;;;;9.93;8.25;;;;;;;23.38;100.00;100571.23;1832366;78;21061;-80
2022/07/23 07:10:07;;;;;;;9.00;8.13;;;;;;;23.22;100.00;100570.58;1832561;78;21073;-79
2022/07/23 07:12:34;;;;;;;10.38;8.70;;;;;;;23.79;100.00;100577.69;1832759;78;21508;-79
2022/07/23 07:15:04;;;;;;;9.05;8.15;;;;;;;23.45;100.00;100579.33;1825210;78;21143;-80
2022/07/23 07:17:33;;;;;;;11.85;8.98;;;;;;;23.45;100.00;100578.84;1801862;79;21090;-80
2022/07/23 07:20:00;;;;;;;9.05;8.00;;;;;;;23.85;100.00;100574.13;1806051;79;20999;-80
2022/07/23 07:22:28;;;;;;;11.40;8.85;;;;;;;23.50;100.00;100581.00;1813907;79;20987;-79
2022/07/23 07:24:55;;;;;;;8.75;7.90;;;;;;;23.50;100.00;100573.97;1813498;79;21090;-79
2022/07/23 07:27:23;;;;;;;8.23;7.53;;;;;;;23.50;100.00;100573.97;1814016;79;21478;-80
2022/07/23 07:29:50;;;;;;;8.60;7.60;;;;;;;23.64;100.00;100595.42;1812907;79;21075;-77
2022/07/23 07:32:18;;;;;;;7.35;6.70;;;;;;;24.14;100.00;100581.73;1813086;79;21023;-79
2022/07/23 07:34:45;;;;;;;10.08;6.85;;;;;;;24.35;100.00;100570.36;1813533;79;21027;-80
2022/07/23 07:37:13;;;;;;;7.22;6.17;;;;;;;24.35;100.00;100570.36;1813602;79;21035;-79
2022/07/23 07:39:40;;;;;;;7.08;6.30;;;;;;;24.20;100.00;100600.34;1813910;79;21530;-78
2022/07/23 07:42:10;;;;;;;8.00;6.40;;;;;;;24.39;100.00;100587.95;1813648;79;21035;-80
2022/07/23 07:44:38;;;;;;;7.00;6.05;;;;;;;24.35;100.00;100601.94;1813828;79;21023;-79
2022/07/23 07:47:05;;;;;;;8.15;6.42;;;;;;;24.43;100.00;100601.62;1811142;79;21472;-78
2022/07/23 07:49:32;;;;;;;7.03;6.42;;;;;;;24.28;100.00;100613.23;1810181;79;21491;-79
2022/07/23 07:52:00;;;;;;;6.22;5.70;;;;;;;24.07;100.00;100602.56;1810013;79;21511;-80
2022/07/23 07:54:30;;;;;;;8.33;6.22;;;;;;;24.20;100.00;100599.02;1809797;79;21499;-80
2022/07/23 07:56:57;;;;;;;7.00;5.75;;;;;;;24.38;100.00;100594.21;1810130;79;21031;-80
2022/07/23 07:59:25;;;;;;;9.83;5.78;;;;;;;25.27;100.00;100603.52;1809721;79;20992;-82
2022/07/23 08:01:54;;;;;;;5.92;5.08;;;;;;;25.38;100.00;100608.50;1810079;79;21001;-80
2022/07/23 08:04:23;;;;;;;6.70;5.83;;;;;;;24.90;100.00;100609.13;1809606;79;21039;-80
2022/07/23 08:06:51;;;;;;;6.40;5.80;;;;;;;24.69;100.00;100612.17;1809613;79;21035;-81
2022/07/23 08:09:22;;;;;;;6.30;5.58;;;;;;;24.44;100.00;100607.24;1809933;79;21019;-80
2022/07/23 08:11:53;;;;;;;5.80;5.30;;;;;;;24.49;100.00;100611.53;1780216;79;21097;-81
2022/07/23 08:14:22;;;;;;;5.87;5.37;;;;;;;24.49;100.00;100604.45;1809826;78;20992;-78
2022/07/23 08:16:51;;;;;;;6.17;4.90;;;;;;;24.59;100.00;100609.17;1809658;79;21468;-80
2022/07/23 08:19:19;;;;;;;5.62;4.85;;;;;;;24.68;100.00;100619.75;1773187;79;21087;-82
2022/07/23 08:21:46;;;;;;;5.65;5.12;;;;;;;24.82;100.00;100627.05;1810048;78;21015;-79
2022/07/23 08:24:13;;;;;;;4.75;4.35;;;;;;;24.93;100.00;100618.85;1809820;79;21574;-78
2022/07/23 08:26:41;;;;;;;5.95;5.33;;;;;;;24.87;100.00;100638.42;1809678;79;21047;-80
2022/07/23 08:29:09;;;;;;;4.65;4.25;;;;;;;25.11;100.00;100624.53;1809646;78;20995;-80
2022/07/23 08:31:40;;;;;;;4.83;4.15;;;;;;;24.84;100.00;100623.77;1809563;78;21058;-79
2022/07/23 08:34:07;;;;;;;5.05;4.55;;;;;;;24.98;97.85;100623.17;1809887;79;21023;-80
2022/07/23 08:36:35;;;;;;;5.03;4.62;;;;;;;25.15;100.00;100617.45;1809596;79;21537;-81
2022/07/23 08:39:04;;;;;;;5.10;4.58;;;;;;;25.36;98.54;100617.03;1809957;79;21023;-78
2022/07/23 08:41:33;;;;;;;5.12;4.53;;;;;;;25.40;98.40;100613.59;1809677;78;21066;-78
2022/07/23 08:44:00;;;;;;;5.15;4.70;;;;;;;25.72;98.27;100612.81;1809873;79;21487;-82
2022/07/23 08:46:28;;;;;;;5.58;4.90;;;;;;;25.84;97.12;100621.73;1812319;78;21054;-79
2022/07/23 08:48:57;;;;;;;5.08;4.67;;;;;;;25.92;95.87;100633.63;1829420;78;21062;-80
2022/07/23 08:51:27;;;;;;;8.53;4.90;;;;;;;25.45;96.87;100625.80;1827852;78;21050;-79
2022/07/23 08:53:56;;;;;;;5.20;4.70;;;;;;;25.52;95.44;100620.70;1809527;78;21085;-79
2022/07/23 08:56:24;;;;;;;5.03;4.60;;;;;;;25.53;98.79;100628.95;1788645;80;21022;-79
2022/07/23 08:59:13;;;;;;;5.92;4.95;;;;;;;25.62;96.43;100616.59;1783242;80;21014;-80
2022/07/23 09:01:42;;;;;;;5.67;4.17;;;;;;;25.33;97.29;100616.05;1775583;80;21506;-79
2022/07/23 09:04:09;;;;;;;4.30;3.90;;;;;;;25.83;94.50;100613.00;1794957;78;21003;-78
2022/07/23 09:06:41;;;;;;;4.65;4.00;;;;;;;25.46;91.96;100612.94;1820953;79;21042;-78
2022/07/23 09:09:20;;;;;;;4.45;4.05;;;;;;;25.58;93.18;100611.64;1823401;79;21423;-79
2022/07/23 09:11:49;;;;;;;5.78;4.35;;;;;;;25.62;93.24;100612.64;1823657;79;21096;-78
2022/07/23 09:14:17;;;;;;;4.92;3.62;;;;;;;25.76;92.21;100617.27;1792250;79;21042;-78
2022/07/23 09:16:44;;;;;;;4.50;4.10;;;;;;;25.85;90.69;100620.72;1767700;79;21561;-79
2022/07/23 09:19:13;;;;;;;5.53;3.77;;;;;;;26.18;88.56;100636.09;1791026;80;21046;-79
2022/07/23 09:21:40;;;;;;;4.45;4.05;;;;;;;26.22;89.41;100620.25;1797264;79;21074;-80
2022/07/23 09:24:15;;;;;;;6.10;4.72;;;;;;;26.28;89.34;100624.05;1811851;79;21523;-80
2022/07/23 09:26:49;;;;;;;4.70;4.30;;;;;;;26.09;92.46;100620.73;1808451;79;21519;-79
2022/07/23 09:29:24;;;;;;;9.48;6.42;;;;;;;26.37;92.04;100626.98;1805018;79;21186;-81
2022/07/23 09:31:58;;;;;;;4.72;4.33;;;;;;;25.91;92.25;100621.41;1798424;79;21183;-80
2022/07/23 09:34:38;;;;;;;6.37;4.10;;;;;;;26.15;92.14;100619.26;1795899;79;21561;-79
2022/07/23 09:37:15;;;;;;;4.85;4.35;;;;;;;26.92;86.35;100616.92;1770371;80;21019;-80
2022/07/23 09:39:46;;;;;;;4.97;4.15;;;;;;;26.71;88.25;100616.70;1740448;82;21518;-81
2022/07/23 09:42:21;;;;;;;5.22;4.35;;;;;;;26.36;87.59;100624.03;1817698;79;21045;-79
2022/07/23 09:44:53;;;;;;;4.60;4.20;;;;;;;26.72;89.79;100617.86;1819324;79;21081;-80
2022/07/23 09:47:23;;;;;;;3.67;3.37;;;;;;;26.31;90.55;100619.73;1819088;78;20955;-80
2022/07/23 09:50:09;;;;;;;4.17;3.65;;;;;;;26.63;84.96;100618.86;1822975;77;20990;-80
2022/07/23 09:52:48;;;;;;;3.52;3.22;;;;;;;26.29;85.82;100616.44;1809586;78;21587;-81
2022/07/23 09:55:18;;;;;;;3.67;3.37;;;;;;;27.13;88.07;100622.95;1825150;78;21006;-80
2022/07/23 09:57:53;;;;;;;4.92;2.77;;;;;;;27.38;81.37;100614.41;1797933;78;21006;-80
2022/07/23 10:00:19;;;;;;;3.70;3.10;;;;;;;27.37;72.35;100622.03;1813455;78;21530;-80
2022/07/23 10:02:48;;;;;;;5.80;3.65;;;;;;;26.69;76.42;100622.14;1807951;78;21718;-79
2022/07/23 10:05:29;;;;;;;4.75;3.65;;;;;;;26.73;82.77;100616.84;1829629;78;20978;-79
2022/07/23 10:08:19;;;;;;;6.20;3.67;;;;;;;27.01;83.38;100613.77;1774939;80;20987;-79
2022/07/23 10:11:06;;;;;;;3.00;2.52;;;;;;;26.56;78.86;100628.41;1776565;80;21590;-81
2022/07/23 10:16:22;;;;;;;3.50;3.20;;;;;;;26.74;79.87;100615.02;1802288;78;20967;-79
2022/07/23 10:18:49;;;;;;;3.47;3.17;;;;;;;27.16;78.27;100600.13;1828840;78;21053;-80
2022/07/23 10:21:44;;;;;;;6.92;3.42;;;;;;;27.32;75.92;100597.92;1826164;78;21029;-79
2022/07/23 10:24:22;;;;;;;9.13;3.52;;;;;;;27.27;78.33;100613.98;1827386;78;21017;-80
2022/07/23 10:27:00;;;;;;;3.83;3.35;;;;;;;27.40;78.11;100594.92;1830832;78;21486;-80
2022/07/23 10:29:42;;;;;;;6.92;4.00;;;;;;;27.26;76.46;100590.70;1806840;79;21011;-77
2022/07/23 10:32:24;;;;;;;3.55;3.25;;;;;;;27.22;81.81;100599.13;1824836;79;21054;-80
2022/07/23 10:35:03;;;;;;;4.47;3.58;;;;;;;27.78;77.93;100596.59;1824402;78;21113;-80
2022/07/23 10:37:43;;;;;;;5.60;3.50;;;;;;;27.84;73.94;100599.52;1814072;77;20979;-81
2022/07/23 10:40:18;;;;;;;5.05;4.05;;;;;;;27.76;75.39;100601.25;1827425;78;21549;-80
2022/07/23 10:42:52;;;;;;;4.95;3.98;;;;;;;27.85;76.01;100587.44;1826594;78;21043;-80
2022/07/23 10:45:39;;;;;;;4.85;4.12;;;;;;;27.35;80.09;100600.23;1822961;78;21078;-82
2022/07/23 10:48:26;;;;;;;4.15;3.80;;;;;;;26.98;84.18;100593.78;1824629;78;21539;-80
2022/07/23 10:51:10;;;;;;;4.45;3.30;;;;;;;27.03;82.24;100595.08;1824708;79;21015;-80
2022/07/23 10:53:55;;;;;;;4.15;2.90;;;;;;;26.94;79.00;100601.73;1824340;79;21018;-80
2022/07/23 10:56:59;;;;;;;5.50;3.20;;;;;;;27.17;75.52;100589.90;1824274;79;21018;-80
2022/07/23 10:59:29;;;;;;;3.05;2.75;;;;;;;27.37;76.04;100583.70;1824076;79;21623;-80
2022/07/23 11:02:23;;;;;;;5.10;3.33;;;;;;;27.00;77.54;100588.84;1823866;79;21070;-81
2022/07/23 11:04:53;;;;;;;4.92;3.92;;;;;;;27.10;81.32;100574.91;1824544;79;21002;-81
2022/07/23 11:07:24;;;;;;;6.92;3.70;;;;;;;27.46;81.59;100585.77;1824224;79;21058;-79
2022/07/23 11:09:53;;;;;;;4.70;3.77;;;;;;;27.57;76.48;100581.88;1801390;79;21088;-79
2022/07/23 11:12:33;;;;;;;4.62;3.90;;;;;;;27.66;76.17;100570.77;1824499;79;21078;-79
2022/07/23 11:15:14;;;;;;;5.87;3.62;;;;;;;27.44;76.53;100575.06;1775092;79;21026;-80
2022/07/23 11:17:57;;;;;;;4.12;3.52;;;;;;;27.72;77.69;100586.73;1802294;79;21073;-79
2022/07/23 11:20:28;;;;;;;4.92;3.33;;;;;;;27.39;79.44;100590.11;1824534;79;21073;-79
2022/07/23 11:23:03;;;;;;;4.47;3.95;;;;;;;27.04;79.38;100581.70;1824249;79;21031;-79
2022/07/23 11:25:36;;;;;;;6.08;4.33;;;;;;;27.11;80.93;100581.34;1823278;78;20991;-80
2022/07/23 11:28:25;;;;;;;4.25;3.85;;;;;;;27.42;80.05;100580.52;1824487;78;21026;-78
2022/07/23 11:30:57;;;;;;;4.60;3.70;;;;;;;27.55;78.90;100581.23;1824047;78;20999;-82
2022/07/23 11:33:22;;;;;;;3.50;3.20;;;;;;;27.55;78.37;100580.73;1823037;79;21546;-80
2022/07/23 11:36:03;;;;;;;4.33;3.42;;;;;;;27.19;76.03;100576.52;1824128;77;21573;-78
2022/07/23 11:38:32;;;;;;;6.58;3.62;;;;;;;27.14;77.40;100566.45;1824610;78;21038;-81
2022/07/23 11:41:00;;;;;;;5.47;3.80;;;;;;;26.84;80.29;100571.25;1801733;79;21050;-81
2022/07/23 11:43:28;;;;;;;6.37;3.60;;;;;;;26.77;83.24;100568.48;1824134;79;21068;-79
2022/07/23 11:46:00;;;;;;;4.53;3.45;;;;;;;26.74;85.40;100579.37;1801209;79;21043;-80
2022/07/23 11:48:31;;;;;;;6.72;3.60;;;;;;;26.65;85.28;100575.95;1801515;79;21458;-80
2022/07/23 11:50:59;;;;;;;4.53;3.62;;;;;;;26.62;83.59;100578.10;1824303;79;21046;-80
2022/07/23 11:53:35;;;;;;;5.83;4.17;;;;;;;26.63;84.16;100570.02;1824292;78;21023;-79
2022/07/23 11:56:16;;;;;;;5.22;4.03;;;;;;;26.85;83.53;100563.66;1799276;79;21010;-80
2022/07/23 11:58:48;;;;;;;8.65;4.17;;;;;;;27.23;80.95;100569.92;1824902;78;21855;-80
2022/07/23 12:01:20;;;;;;;6.90;3.98;;;;;;;27.51;80.02;100573.34;1821311;78;21057;-78
2022/07/23 12:03:52;;;;;;;5.90;3.83;;;;;;;28.15;75.96;100561.07;1819805;78;21031;-81
2022/07/23 12:06:20;;;;;;;7.93;3.40;;;;;;;28.60;75.17;100560.58;1822633;79;21038;-80
2022/07/23 12:08:50;;;;;;;3.67;3.37;;;;;;;28.77;69.95;100575.75;1813096;79;20994;-78
2022/07/23 12:11:19;;;;;;;5.17;3.12;;;;;;;28.72;67.20;100566.23;1817607;79;21011;-81
2022/07/23 12:13:58;;;;;;;3.77;3.45;;;;;;;28.84;67.21;100557.31;1797113;79;21014;-81
2022/07/23 12:16:42;;;;;;;4.25;3.15;;;;;;;28.92;68.68;100557.20;1765814;79;20995;-80
2022/07/23 12:19:13;;;;;;;3.77;3.25;;;;;;;28.80;69.96;100552.88;1797623;79;20980;-81
2022/07/23 12:21:42;;;;;;;6.72;3.37;;;;;;;28.16;72.60;100558.73;1817414;79;21092;-79
2022/07/23 12:24:11;;;;;;;3.20;2.90;;;;;;;28.07;71.13;100575.20;1817361;79;21058;-82
2022/07/23 12:26:39;;;;;;;3.37;3.08;;;;;;;28.62;69.22;100563.86;1810776;78;21048;-80
2022/07/23 13:58:00;;;;;;;5.67;4.45;;;;;;;24.46;100.00;100500.03;1680476;85;21111;-75
2022/07/23 14:04:24;;;;;;;7.47;5.33;;;;;;;24.85;100.00;100517.45;1680577;83;21188;-75
2022/07/23 14:06:52;;;;;;;6.60;5.67;;;;;;;25.05;100.00;100518.50;1735039;79;21043;-75
2022/07/23 14:09:19;;;;;;;7.12;5.40;;;;;;;25.09;100.00;100529.86;1780334;79;21524;-74
2022/07/23 14:11:47;;;;;;;8.83;6.80;;;;;;;24.75;100.00;100537.83;1785749;79;21024;-76
2022/07/23 14:14:14;;;;;;;8.23;5.70;;;;;;;24.10;100.00;100513.33;1787026;79;20992;-79
2022/07/23 14:16:42;;;;;;;7.70;4.83;;;;;;;23.23;100.00;100487.35;1785669;79;21019;-75
2022/07/23 14:19:11;;;;;;;8.18;4.25;;;;;;;22.99;100.00;100475.14;1759617;80;21067;-75
2022/07/23 14:21:38;;;;;;;5.83;4.62;;;;;;;23.11;100.00;100469.19;1795191;79;21035;-74
2022/07/23 14:24:07;;;;;;;9.03;4.22;;;;;;;23.11;100.00;100469.19;1805659;79;21043;-74
2022/07/23 14:26:34;;;;;;;5.83;4.85;;;;;;;23.45;100.00;100471.13;1803620;79;20971;-76
2022/07/23 14:29:03;;;;;;;5.00;4.50;;;;;;;23.48;100.00;100474.77;1809778;79;21015;-77
2022/07/23 14:31:31;;;;;;;6.20;4.22;;;;;;;23.64;100.00;100479.80;1809708;79;21024;-77
2022/07/23 14:33:59;;;;;;;5.10;4.15;;;;;;;23.74;100.00;100494.98;1809582;79;21191;-77
2022/07/23 14:36:27;;;;;;;5.97;4.30;;;;;;;23.99;100.00;100500.77;1809679;79;21024;-77
2022/07/23 14:38:54;;;;;;;5.75;4.20;;;;;;;24.39;100.00;100503.30;1809614;79;21050;-78
2022/07/23 14:41:22;;;;;;;6.90;4.85;;;;;;;24.68;100.00;100517.91;1809587;79;20987;-79
2022/07/23 14:43:49;;;;;;;6.67;5.10;;;;;;;24.96;100.00;100519.80;1803919;79;21545;-79
2022/07/23 14:46:17;;;;;;;6.35;4.70;;;;;;;25.25;100.00;100535.68;1806072;79;21056;-76
2022/07/23 14:48:44;;;;;;;6.47;5.03;;;;;;;25.44;100.00;100534.53;1801812;79;21051;-77